createdAt,value
2019-05-21T00:01:20.909Z,9.13
2019-05-21T00:03:51.133Z,9.97
2019-05-21T00:06:21.288Z,9.53
2019-05-21T00:08:51.493Z,9.47
2019-05-21T00:11:21.632Z,9.87
2019-05-21T00:13:51.798Z,9.30
2019-05-21T00:16:22.052Z,9.60
2019-05-21T00:18:52.174Z,10.10
2019-05-21T00:21:22.301Z,9.27
2019-05-21T00:23:52.434Z,10.17
2019-05-21T00:26:23.653Z,9.60
2019-05-21T00:29:29.789Z,9.63
2019-05-21T00:32:36.030Z,9.90
2019-05-21T00:35:48.633Z,10.17
2019-05-21T00:38:54.709Z,10.80
2019-05-21T00:42:06.305Z,9.63
2019-05-21T00:44:40.295Z,10.00
2019-05-21T00:47:11.962Z,9.10
2019-05-21T00:49:42.422Z,8.97
2019-05-21T00:52:12.563Z,9.23
2019-05-21T00:54:42.682Z,8.93
2019-05-21T00:57:12.810Z,8.87
2019-05-21T00:59:42.942Z,10.07
2019-05-21T01:02:13.144Z,9.37
2019-05-21T01:04:43.305Z,9.57
2019-05-21T01:07:13.455Z,9.80
2019-05-21T01:09:43.586Z,9.77
2019-05-21T01:12:15.790Z,9.57
2019-05-21T01:14:45.943Z,9.53
2019-05-21T01:17:16.114Z,10.70
2019-05-21T01:19:46.296Z,10.00
2019-05-21T01:22:16.433Z,10.03
2019-05-21T01:24:46.609Z,9.27
2019-05-21T01:27:16.753Z,9.73
2019-05-21T01:29:46.883Z,9.87
2019-05-21T01:32:17.016Z,9.40
2019-05-21T01:34:47.178Z,8.90
2019-05-21T01:37:17.338Z,9.57
2019-05-21T01:39:47.492Z,10.20
2019-05-21T01:42:17.654Z,9.43
2019-05-21T01:44:47.799Z,10.23
2019-05-21T01:47:17.927Z,9.47
2019-05-21T01:49:48.053Z,10.07
2019-05-21T01:52:18.186Z,9.40
2019-05-21T01:54:48.342Z,9.60
2019-05-21T01:57:18.497Z,9.90
2019-05-21T01:59:48.644Z,8.83
2019-05-21T02:02:18.774Z,8.87
2019-05-21T02:04:48.945Z,9.20
2019-05-21T02:07:19.106Z,9.03
2019-05-21T02:09:58.263Z,9.73
2019-05-21T02:12:28.616Z,9.87
2019-05-21T02:14:58.869Z,9.40
2019-05-21T02:17:29.034Z,9.70
2019-05-21T02:19:59.162Z,9.33
2019-05-21T02:22:29.329Z,9.77
2019-05-21T02:24:59.445Z,9.77
2019-05-21T02:27:29.612Z,9.97
2019-05-21T02:30:00.819Z,10.10
2019-05-21T02:32:31.043Z,9.47
2019-05-21T02:35:01.188Z,10.10
2019-05-21T02:37:31.369Z,9.70
2019-05-21T02:40:01.522Z,10.60
2019-05-21T02:42:31.698Z,10.00
2019-05-21T02:45:01.897Z,10.17
2019-05-21T02:47:32.055Z,10.00
2019-05-21T02:50:03.093Z,9.93
2019-05-21T02:52:33.234Z,10.13
2019-05-21T02:55:03.365Z,10.17
2019-05-21T02:57:41.297Z,9.80
2019-05-21T03:00:40.966Z,10.40
2019-05-21T03:03:11.991Z,10.00
2019-05-21T03:05:42.134Z,10.97
2019-05-21T03:08:12.279Z,10.53
2019-05-21T03:10:42.416Z,11.30
2019-05-21T03:13:12.551Z,10.90
2019-05-21T03:15:42.694Z,10.90
2019-05-21T03:18:12.915Z,9.40
2019-05-21T03:20:43.099Z,10.90
2019-05-21T03:23:13.265Z,10.33
2019-05-21T03:25:43.406Z,9.97
2019-05-21T03:28:13.611Z,10.20
2019-05-21T03:30:43.815Z,11.13
2019-05-21T03:33:14.032Z,10.30
2019-05-21T03:35:44.187Z,9.57
2019-05-21T03:38:14.313Z,10.07
2019-05-21T03:40:44.452Z,10.00
2019-05-21T03:43:14.606Z,9.43
2019-05-21T03:45:45.610Z,9.40
2019-05-21T03:48:15.744Z,8.83
2019-05-21T03:50:45.927Z,9.13
2019-05-21T03:53:16.072Z,9.57
2019-05-21T03:55:46.398Z,9.33
2019-05-21T03:58:16.582Z,8.73
2019-05-21T04:00:46.727Z,9.30
2019-05-21T04:03:17.094Z,8.97
2019-05-21T04:05:47.221Z,9.80
2019-05-21T04:08:17.511Z,8.43
2019-05-21T04:10:47.651Z,9.17
2019-05-21T04:13:17.804Z,9.90
2019-05-21T04:16:03.081Z,9.43
2019-05-21T04:18:38.368Z,8.27
2019-05-21T04:21:08.549Z,8.93
2019-05-21T04:23:39.661Z,8.93
2019-05-21T04:26:09.824Z,8.97
2019-05-21T04:28:40.059Z,8.10
2019-05-21T04:31:10.198Z,9.00
2019-05-21T04:33:40.366Z,8.57
2019-05-21T04:36:10.473Z,8.70
2019-05-21T04:38:40.606Z,7.83
2019-05-21T04:41:10.795Z,8.00
2019-05-21T04:43:40.924Z,7.60
2019-05-21T04:46:11.101Z,8.20
2019-05-21T04:48:41.219Z,9.07
2019-05-21T04:51:13.942Z,7.97
2019-05-21T04:53:44.423Z,7.70
2019-05-21T04:56:14.611Z,8.60
2019-05-21T04:58:44.879Z,7.63
2019-05-21T05:01:15.875Z,8.03
2019-05-21T05:03:46.176Z,7.73
2019-05-21T05:06:16.438Z,7.27
2019-05-21T05:08:46.568Z,7.93
2019-05-21T05:11:16.772Z,8.17
2019-05-21T05:13:47.044Z,8.03
2019-05-21T05:16:17.131Z,7.53
2019-05-21T05:18:47.285Z,7.17
2019-05-21T05:21:19.710Z,7.20
2019-05-21T05:23:49.962Z,6.93
2019-05-21T05:26:20.927Z,6.60
2019-05-21T05:28:51.089Z,5.90
2019-05-21T05:31:21.232Z,7.20
2019-05-21T05:33:51.532Z,6.60
2019-05-21T05:36:21.683Z,6.73
2019-05-21T05:38:51.821Z,6.27
2019-05-21T05:41:21.959Z,6.53
2019-05-21T05:43:52.180Z,6.47
2019-05-21T05:46:22.302Z,6.77
2019-05-21T05:49:04.021Z,6.70
2019-05-21T05:51:34.228Z,6.63
2019-05-21T05:54:07.562Z,6.83
2019-05-21T05:56:36.208Z,6.20
2019-05-21T05:59:06.351Z,7.07
2019-05-21T06:01:36.482Z,6.47
2019-05-21T06:04:07.325Z,6.10
2019-05-21T06:06:37.490Z,6.63
2019-05-21T06:09:07.714Z,6.60
2019-05-21T06:11:38.000Z,6.30
2019-05-21T06:14:08.178Z,7.23
2019-05-21T06:16:38.303Z,6.10
2019-05-21T06:19:08.439Z,6.17
2019-05-21T06:21:38.581Z,6.10
2019-05-21T06:24:08.717Z,6.17
2019-05-21T06:26:38.862Z,5.80
2019-05-21T06:29:09.023Z,5.67
2019-05-21T06:31:39.152Z,5.50
2019-05-21T06:34:09.286Z,5.70
2019-05-21T06:36:39.485Z,5.43
2019-05-21T06:39:09.609Z,5.37
2019-05-21T06:41:39.749Z,5.57
2019-05-21T06:44:09.899Z,4.60
2019-05-21T06:46:40.049Z,4.63
2019-05-21T06:49:10.175Z,4.70
2019-05-21T06:51:40.306Z,4.73
2019-05-21T06:54:11.235Z,4.50
2019-05-21T06:56:41.370Z,4.80
2019-05-21T06:59:11.612Z,5.17
2019-05-21T07:01:41.789Z,4.40
2019-05-21T07:04:11.944Z,4.47
2019-05-21T07:06:44.739Z,4.50
2019-05-21T07:09:13.970Z,4.30
2019-05-21T07:11:44.145Z,4.17
2019-05-21T07:14:15.395Z,4.40
2019-05-21T07:16:45.555Z,4.50
2019-05-21T07:19:15.734Z,4.23
2019-05-21T07:21:45.862Z,4.17
2019-05-21T07:24:16.011Z,4.30
2019-05-21T07:26:46.182Z,4.27
2019-05-21T07:29:16.352Z,4.20
2019-05-21T07:31:46.459Z,4.33
2019-05-21T07:34:16.614Z,4.53
2019-05-21T07:36:46.757Z,4.50
2019-05-21T07:39:16.901Z,4.50
2019-05-21T07:41:47.044Z,4.30
2019-05-21T07:44:18.274Z,4.70
2019-05-21T07:46:48.616Z,4.43
2019-05-21T07:49:18.756Z,4.50
2019-05-21T07:51:48.940Z,4.40
2019-05-21T07:54:19.109Z,4.60
2019-05-21T07:56:49.267Z,4.13
2019-05-21T07:59:19.400Z,4.30
2019-05-21T08:01:49.551Z,4.40
2019-05-21T08:04:19.688Z,4.33
2019-05-21T08:06:49.822Z,4.13
2019-05-21T08:09:19.979Z,4.40
2019-05-21T08:11:50.310Z,4.30
2019-05-21T08:14:20.632Z,4.17
2019-05-21T08:16:50.785Z,4.10
2019-05-21T08:19:21.885Z,4.33
2019-05-21T08:21:53.313Z,4.20
2019-05-21T08:24:23.462Z,4.17
2019-05-21T08:26:53.624Z,4.33
2019-05-21T08:29:23.795Z,3.90
2019-05-21T08:31:53.975Z,4.30
2019-05-21T08:34:24.098Z,4.30
2019-05-21T08:36:54.229Z,4.30
2019-05-21T08:39:28.771Z,4.27
2019-05-21T08:41:56.229Z,4.23
2019-05-21T08:44:26.371Z,4.30
2019-05-21T08:46:56.525Z,4.13
2019-05-21T08:49:26.703Z,4.17
2019-05-21T08:51:56.851Z,4.63
2019-05-21T08:54:44.697Z,3.90
2019-05-21T08:57:14.834Z,4.33
2019-05-21T08:59:44.986Z,4.33
2019-05-21T09:02:15.229Z,4.20
2019-05-21T09:04:46.801Z,4.50
2019-05-21T09:07:16.997Z,4.03
2019-05-21T09:09:50.754Z,4.20
2019-05-21T09:12:20.037Z,4.30
2019-05-21T09:14:50.180Z,4.33
2019-05-21T09:17:20.345Z,4.17
2019-05-21T09:19:50.458Z,4.40
2019-05-21T09:22:20.625Z,4.13
2019-05-21T09:24:50.822Z,4.70
2019-05-21T09:27:22.093Z,4.40
2019-05-21T09:29:52.579Z,4.40
2019-05-21T09:32:22.718Z,4.23
2019-05-21T09:34:52.898Z,4.20
2019-05-21T09:37:23.026Z,3.90
2019-05-21T09:39:53.168Z,3.93
2019-05-21T09:42:23.307Z,4.43
2019-05-21T09:44:53.534Z,4.40
2019-05-21T09:47:23.679Z,4.57
2019-05-21T09:49:54.401Z,4.40
2019-05-21T09:52:24.649Z,4.97
2019-05-21T09:54:54.809Z,4.47
2019-05-21T09:57:39.563Z,4.43
2019-05-21T10:00:16.885Z,4.90
2019-05-21T10:02:47.010Z,4.80
2019-05-21T10:05:17.312Z,4.47
2019-05-21T10:07:47.443Z,4.57
2019-05-21T10:10:17.849Z,4.57
2019-05-21T10:12:48.007Z,4.37
2019-05-21T10:15:19.229Z,4.07
2019-05-21T10:17:50.324Z,4.33
2019-05-21T10:20:20.661Z,4.50
2019-05-21T10:22:50.794Z,4.70
2019-05-21T10:25:21.060Z,4.17
2019-05-21T10:27:51.270Z,4.50
2019-05-21T10:30:21.426Z,6.10
2019-05-21T10:32:51.589Z,8.80
2019-05-21T10:35:21.965Z,5.00
2019-05-21T10:37:55.322Z,4.20
2019-05-21T10:40:24.138Z,4.20
2019-05-21T10:42:54.236Z,4.33
2019-05-21T10:45:24.370Z,4.43
2019-05-21T10:47:54.697Z,4.60
2019-05-21T10:50:24.989Z,4.97
2019-05-21T10:52:55.336Z,4.70
2019-05-21T10:55:25.464Z,4.80
2019-05-21T10:57:55.591Z,4.80
2019-05-21T11:00:26.907Z,5.00
2019-05-21T11:03:05.040Z,4.63
2019-05-21T11:05:40.344Z,4.80
2019-05-21T11:08:23.705Z,5.30
2019-05-21T11:10:43.241Z,5.10
2019-05-21T11:13:13.464Z,5.03
2019-05-21T11:15:43.658Z,5.03
2019-05-21T11:18:13.787Z,5.37
2019-05-21T11:20:43.933Z,5.03
2019-05-21T11:23:14.089Z,5.30
2019-05-21T11:25:44.205Z,4.97
2019-05-21T11:28:14.331Z,5.40
2019-05-21T11:30:44.479Z,4.73
2019-05-21T11:33:14.619Z,4.87
2019-05-21T11:35:44.765Z,4.50
2019-05-21T11:38:14.899Z,4.90
2019-05-21T11:40:50.560Z,4.90
2019-05-21T11:43:16.935Z,4.47
2019-05-21T11:45:47.064Z,5.03
2019-05-21T11:48:17.186Z,5.03
2019-05-21T11:50:47.350Z,6.03
2019-05-21T11:53:17.513Z,4.40
2019-05-21T11:55:47.731Z,4.20
2019-05-21T11:58:17.852Z,4.70
2019-05-21T12:00:47.979Z,4.43
2019-05-21T12:03:18.094Z,4.63
2019-05-21T12:05:49.085Z,4.90
2019-05-21T12:08:19.271Z,5.00
2019-05-21T12:10:49.519Z,4.83
2019-05-21T12:13:20.921Z,4.87
2019-05-21T12:15:51.148Z,4.90
2019-05-21T12:18:21.285Z,5.23
2019-05-21T12:20:51.466Z,4.80
2019-05-21T12:23:21.912Z,4.70
2019-05-21T12:25:52.099Z,5.37
2019-05-21T12:28:22.310Z,5.00
2019-05-21T12:30:52.440Z,4.73
2019-05-21T12:33:22.581Z,5.07
2019-05-21T12:35:52.711Z,4.80
2019-05-21T12:38:22.859Z,5.37
2019-05-21T12:40:52.984Z,5.03
2019-05-21T12:43:23.118Z,5.03
2019-05-21T12:45:53.258Z,5.20
2019-05-21T12:48:23.391Z,4.83
2019-05-21T12:50:53.544Z,5.10
2019-05-21T12:53:24.134Z,5.00
2019-05-21T12:55:54.328Z,4.80
2019-05-21T12:58:24.479Z,4.50
2019-05-21T13:00:54.618Z,4.90
2019-05-21T13:03:24.761Z,5.00
2019-05-21T13:05:54.886Z,5.60
2019-05-21T13:08:25.029Z,5.30
2019-05-21T13:10:55.243Z,5.77
2019-05-21T13:13:25.369Z,4.80
2019-05-21T13:15:55.506Z,5.53
2019-05-21T13:18:25.631Z,5.27
2019-05-21T13:20:55.761Z,5.10
2019-05-21T13:23:26.969Z,5.33
2019-05-21T13:25:57.258Z,5.80
2019-05-21T13:28:27.383Z,5.50
2019-05-21T13:30:57.595Z,5.20
2019-05-21T13:33:27.723Z,5.00
2019-05-21T13:35:57.963Z,5.77
2019-05-21T13:38:28.262Z,5.27
2019-05-21T13:40:58.683Z,5.13
2019-05-21T13:43:28.830Z,4.70
2019-05-21T13:45:59.024Z,5.93
2019-05-21T13:48:29.129Z,5.50
2019-05-21T13:50:59.272Z,5.13
2019-05-21T13:53:29.497Z,5.23
2019-05-21T13:55:59.653Z,5.80
2019-05-21T13:58:29.795Z,5.10
2019-05-21T14:01:00.306Z,4.97
2019-05-21T14:03:30.469Z,5.53
2019-05-21T14:06:01.920Z,5.50
2019-05-21T14:08:32.074Z,5.70
2019-05-21T14:11:03.098Z,5.20
2019-05-21T14:13:33.292Z,5.70
2019-05-21T14:16:03.476Z,5.20
2019-05-21T14:18:33.620Z,5.30
2019-05-21T14:21:03.777Z,5.20
2019-05-21T14:23:35.113Z,5.13
2019-05-21T14:26:05.458Z,5.47
2019-05-21T14:28:35.650Z,5.17
2019-05-21T14:31:05.849Z,5.43
2019-05-21T14:33:36.002Z,5.10
2019-05-21T14:36:06.212Z,5.10
2019-05-21T14:38:36.425Z,4.80
2019-05-21T14:41:06.929Z,4.90
2019-05-21T14:43:38.201Z,5.10
2019-05-21T14:46:08.352Z,5.40
2019-05-21T14:48:38.485Z,5.20
2019-05-21T14:51:13.142Z,5.23
2019-05-21T14:53:40.690Z,5.30
2019-05-21T14:56:10.908Z,5.37
2019-05-21T14:58:41.060Z,5.13
2019-05-21T15:01:11.167Z,5.47
2019-05-21T15:03:41.316Z,5.47
2019-05-21T15:06:12.284Z,5.33
2019-05-21T15:08:42.405Z,5.30
2019-05-21T15:11:12.529Z,5.60
2019-05-21T15:13:42.687Z,5.37
2019-05-21T15:16:12.839Z,5.33
2019-05-21T15:18:43.015Z,5.80
2019-05-21T15:21:21.514Z,5.20
2019-05-21T15:23:52.682Z,5.47
2019-05-21T15:26:23.893Z,5.43
2019-05-21T15:28:55.109Z,5.37
2019-05-21T15:31:25.387Z,5.93
2019-05-21T15:33:55.712Z,6.00
2019-05-21T15:36:26.063Z,6.10
2019-05-21T15:38:56.226Z,5.93
2019-05-21T15:41:26.429Z,5.87
2019-05-21T15:43:56.573Z,6.83
2019-05-21T15:46:26.784Z,6.80
2019-05-21T15:48:56.916Z,6.63
2019-05-21T15:51:27.046Z,6.43
2019-05-21T15:53:58.425Z,6.20
2019-05-21T15:56:28.501Z,6.10
2019-05-21T15:58:58.633Z,6.30
2019-05-21T16:01:28.765Z,6.17
2019-05-21T16:03:58.891Z,6.23
2019-05-21T16:06:30.592Z,6.30
2019-05-21T16:09:00.809Z,6.50
2019-05-21T16:11:31.526Z,6.13
2019-05-21T16:14:01.713Z,5.97
2019-05-21T16:16:31.856Z,6.50
2019-05-21T16:19:02.111Z,6.17
2019-05-21T16:21:32.212Z,6.33
2019-05-21T16:24:02.340Z,6.27
2019-05-21T16:26:32.528Z,6.43
2019-05-21T16:29:02.665Z,6.80
2019-05-21T16:31:32.801Z,6.30
2019-05-21T16:34:02.930Z,6.30
2019-05-21T16:36:33.177Z,6.40
2019-05-21T16:39:05.003Z,6.43
2019-05-21T16:41:44.226Z,6.07
2019-05-21T16:44:07.035Z,6.70
2019-05-21T16:46:37.183Z,5.80
2019-05-21T16:49:07.327Z,5.87
2019-05-21T16:51:38.535Z,6.10
2019-05-21T16:54:08.711Z,5.90
2019-05-21T16:56:38.881Z,5.90
2019-05-21T16:59:08.953Z,6.00
2019-05-21T17:01:39.108Z,5.97
2019-05-21T17:04:09.224Z,6.07
2019-05-21T17:06:39.409Z,5.90
2019-05-21T17:09:12.769Z,5.17
2019-05-21T17:11:42.928Z,5.60
2019-05-21T17:14:13.093Z,5.63
2019-05-21T17:16:43.198Z,6.30
2019-05-21T17:19:13.529Z,5.97
2019-05-21T17:21:44.750Z,5.93
2019-05-21T17:24:14.873Z,5.13
2019-05-21T17:26:45.016Z,5.73
2019-05-21T17:29:16.200Z,5.60
2019-05-21T17:31:46.356Z,5.60
2019-05-21T17:34:16.536Z,5.07
2019-05-21T17:36:46.880Z,5.87
2019-05-21T17:39:17.384Z,5.83
2019-05-21T17:41:47.551Z,5.67
2019-05-21T17:44:17.673Z,5.50
2019-05-21T17:46:47.934Z,5.07
2019-05-21T17:49:19.367Z,6.20
2019-05-21T17:51:50.469Z,5.67
2019-05-21T17:54:20.830Z,5.57
2019-05-21T17:56:50.995Z,5.07
2019-05-21T17:59:22.455Z,5.60
2019-05-21T18:01:53.349Z,5.87
2019-05-21T18:04:23.733Z,5.20
2019-05-21T18:06:53.951Z,5.30
2019-05-21T18:09:24.374Z,5.63
2019-05-21T18:11:54.549Z,5.60
2019-05-21T18:14:25.586Z,5.70
2019-05-21T18:16:56.113Z,6.07
2019-05-21T18:19:26.517Z,6.00
2019-05-21T18:21:57.095Z,5.90
2019-05-21T18:24:27.620Z,5.70
2019-05-21T18:26:57.992Z,5.50
2019-05-21T18:29:28.117Z,5.50
2019-05-21T18:31:58.377Z,5.97
2019-05-21T18:34:28.521Z,5.60
2019-05-21T18:36:58.731Z,5.40
2019-05-21T18:39:29.182Z,5.90
2019-05-21T18:41:59.385Z,5.67
2019-05-21T18:44:29.522Z,5.10
2019-05-21T18:46:59.676Z,5.40
2019-05-21T18:49:29.875Z,5.87
2019-05-21T18:52:00.219Z,5.70
2019-05-21T18:54:30.482Z,5.40
2019-05-21T18:57:00.718Z,5.60
2019-05-21T18:59:30.992Z,5.50
2019-05-21T19:02:01.308Z,5.60
2019-05-21T19:04:31.476Z,5.67
2019-05-21T19:07:01.912Z,6.00
2019-05-21T19:09:32.166Z,6.03
2019-05-21T19:12:02.954Z,5.53
2019-05-21T19:14:33.568Z,5.50
2019-05-21T19:17:03.814Z,5.60
2019-05-21T19:19:33.950Z,5.80
2019-05-21T19:22:04.288Z,5.70
2019-05-21T19:24:34.452Z,5.63
2019-05-21T19:27:04.755Z,5.83
2019-05-21T19:29:35.009Z,6.10
2019-05-21T19:32:06.467Z,5.90
2019-05-21T19:34:36.619Z,7.43
2019-05-21T19:37:06.849Z,6.37
2019-05-21T19:39:37.348Z,6.00
2019-05-21T19:42:07.509Z,6.30
2019-05-21T19:44:37.656Z,6.30
2019-05-21T19:47:08.903Z,6.57
2019-05-21T19:49:39.057Z,6.40
2019-05-21T19:52:10.777Z,6.53
2019-05-21T19:54:40.943Z,7.00
2019-05-21T19:57:11.277Z,7.20
2019-05-21T19:59:41.557Z,6.40
2019-05-21T20:02:11.966Z,6.77
2019-05-21T20:04:42.902Z,7.90
2019-05-21T20:07:15.212Z,7.40
2019-05-21T20:09:49.125Z,7.63
2019-05-21T20:12:19.371Z,7.10
2019-05-21T20:14:49.674Z,7.40
2019-05-21T20:17:20.570Z,7.73
2019-05-21T20:19:52.577Z,7.47
2019-05-21T20:22:26.239Z,7.57
2019-05-21T20:24:55.611Z,7.43
2019-05-21T20:27:26.065Z,6.97
2019-05-21T20:30:11.540Z,7.27
2019-05-21T20:32:31.524Z,7.03
2019-05-21T20:35:01.819Z,7.43
2019-05-21T20:37:32.153Z,7.53
2019-05-21T20:40:02.305Z,7.37
2019-05-21T20:42:32.727Z,6.77
2019-05-21T20:45:03.041Z,7.13
2019-05-21T20:47:34.580Z,7.60
2019-05-21T20:50:05.746Z,7.23
2019-05-21T20:52:36.416Z,7.00
2019-05-21T20:55:08.230Z,7.10
2019-05-21T20:57:38.949Z,8.00
2019-05-21T21:00:11.009Z,7.90
2019-05-21T21:02:44.404Z,7.80
2019-05-21T21:05:15.363Z,8.30
2019-05-21T21:07:45.827Z,7.63
2019-05-21T21:10:16.233Z,7.90
2019-05-21T21:12:46.931Z,7.77
2019-05-21T21:15:17.274Z,8.03
2019-05-21T21:17:47.436Z,8.40
2019-05-21T21:20:17.680Z,7.50
2019-05-21T21:22:47.829Z,7.30
2019-05-21T21:25:24.266Z,8.47
2019-05-21T21:27:55.600Z,7.70
2019-05-21T21:30:25.916Z,7.63
2019-05-21T21:32:56.943Z,7.73
2019-05-21T21:35:27.145Z,7.53
2019-05-21T21:37:57.874Z,8.23
2019-05-21T21:40:28.309Z,7.20
2019-05-21T21:42:58.844Z,7.70
2019-05-21T21:45:29.055Z,7.90
2019-05-21T21:47:59.209Z,7.77
2019-05-21T21:50:29.640Z,7.40
2019-05-21T21:52:59.775Z,7.83
2019-05-21T21:55:31.974Z,7.87
2019-05-21T21:58:02.076Z,8.03
2019-05-21T22:01:27.959Z,8.50
2019-05-21T22:04:02.112Z,7.80
2019-05-21T22:06:35.497Z,7.33
2019-05-21T22:09:10.146Z,8.20
2019-05-21T22:11:40.828Z,8.07
2019-05-21T22:14:10.993Z,8.10
2019-05-21T22:16:41.245Z,8.10
2019-05-21T22:19:11.847Z,8.40
2019-05-21T22:21:43.006Z,9.20
2019-05-21T22:24:13.667Z,8.17
2019-05-21T22:26:43.809Z,8.07
2019-05-21T22:29:13.948Z,8.43
2019-05-21T22:31:44.665Z,8.73
2019-05-21T22:34:15.107Z,9.27
2019-05-21T22:36:45.253Z,8.63
2019-05-21T22:39:20.122Z,8.37
2019-05-21T22:41:50.245Z,8.70
2019-05-21T22:44:21.400Z,8.53
2019-05-21T22:46:52.441Z,8.43
2019-05-21T22:49:22.654Z,8.33
2019-05-21T22:51:54.023Z,8.63
2019-05-21T22:54:24.265Z,8.53
2019-05-21T22:56:54.404Z,8.73
2019-05-21T22:59:24.540Z,7.70
2019-05-21T23:01:56.702Z,8.70
2019-05-21T23:04:26.869Z,8.57
2019-05-21T23:06:58.763Z,9.03
2019-05-21T23:09:28.902Z,8.73
2019-05-21T23:11:59.043Z,8.20
2019-05-21T23:14:29.569Z,8.30
2019-05-21T23:17:01.758Z,8.77
2019-05-21T23:19:45.891Z,8.07
2019-05-21T23:22:18.517Z,8.23
2019-05-21T23:24:49.801Z,8.90
2019-05-21T23:27:20.705Z,8.33
2019-05-21T23:29:51.113Z,8.37
2019-05-21T23:32:21.621Z,8.90
2019-05-21T23:34:53.583Z,8.20
2019-05-21T23:37:25.371Z,9.00
2019-05-21T23:39:55.620Z,8.87
2019-05-21T23:42:30.203Z,8.23
2019-05-21T23:44:58.002Z,8.83
2019-05-21T23:47:28.137Z,8.57
2019-05-21T23:49:58.693Z,8.77
2019-05-21T23:52:29.428Z,8.90
2019-05-21T23:55:00.168Z,9.30
2019-05-21T23:57:33.352Z,8.30
